< < Back
Terminal Aerodrome Forecast


Current Version              Previous Versions:   1  2  3  4  5  6  7  8  9  

Terminal Aerodrome Forecast

511
FTUS42 KFFC 200538
TAFAHN
TAF
KAHN 200538Z 2006/2106 05003KT P6SM VCSH OVC070
     FM200900 00000KT 6SM -RA BR OVC040
     FM201300 06004KT 5SM -RA BR OVC025
     FM201700 07005KT P6SM VCSH OVC028
     FM202100 08005KT P6SM BKN035
     FM210000 30004KT P6SM SCT050=

Latest METAR

496
SAUS70 KWBC 201400 RRA
MTRAHN
METAR KAHN 201351Z 01003KT 5SM BR FEW021 BKN035 OVC047 07/06 A3020 RMK
AO2 RAE21 SLP230 P0001 T00720061


USA.gov is the U.S. government's official web portal to all federal, state and local government web resources and services.